Yariguíes Airport

Airport
ICAO code: 
SKEJ
IATA Code: 
EJA
Summary
ICAO Region: 
CARSAM
Territory: 
Location: 
Los Laureles, Santander Department
Serving: 
Barrancacabermeja
Elevation: 
412 ft
Coordinates: 
Aerial View: 
7° 1' 29.4" N, 73° 48' 26.07" W
Metar
Observation
SKEJ 021300Z 11003KT 9999 SCT015 26/25 Q1012 RMK A2989
Station
Barrancabermeja / Yariguies
Date/Time
2021-12-02 13:00:00
Wind direction
110°
Wind speed
03 kts
Lowest cloud amount
scattered clouds
Temperature
26°C
Dew point
25°C
Humidity
94%
QNH
1012 hPa
Weather condition
n/a

Yariguíes Airport is an airport serving Barrancabermeja, a city in the Santander Department of Colombia. The airport is 6km southeast of the city.

Climatology

Tropical monsoon climate (Köppen climate classification Am)

Runways

Designator Length Width Surface Rops
4/22 1800 45 ASP No/No
Airport map: 
Aerial View: 

SKYbrary Partners:

Safety knowledge contributed by: